Terminal Aerodrome Forecast
Issued by NWS

Home | Current Version | Previous Version | Text Only | Print | Product List | Glossary On
Versions: 1 2 3 4 5 6 7 8 9 10 11 12 13 14 15 16 17
000
FTUS46 KSEW 021735
TAFBFI
TAF
KBFI 021735Z 0218/0318 14007KT P6SM -RA BKN050 OVC070
     FM022000 16010KT P6SM -RA SCT025 OVC040
      TEMPO 0222/0301 BKN025 OVC040
     FM030100 18010KT P6SM SCT030 BKN040
      TEMPO 0301/0305 -SHRA BKN030 BKN040
     FM030500 17009KT P6SM VCSH SCT025 BKN040=

USA.gov is the U.S. government's official web portal to all federal, state and local government web resources and services.